createdAt,value
2023-04-29T00:00:14.322Z,58.63
2023-04-29T00:01:16.987Z,58.54
2023-04-29T00:02:19.380Z,58.42
2023-04-29T00:03:22.178Z,58.43
2023-04-29T00:04:27.769Z,58.70
2023-04-29T00:05:30.315Z,58.57
2023-04-29T00:06:32.663Z,59.03
2023-04-29T00:07:38.081Z,58.94
2023-04-29T00:08:40.738Z,59.16
2023-04-29T00:09:43.078Z,59.17
2023-04-29T00:10:45.312Z,59.36
2023-04-29T00:11:48.106Z,59.40
2023-04-29T00:12:51.818Z,59.41
2023-04-29T00:13:54.105Z,59.54
2023-04-29T00:14:56.486Z,59.41
2023-04-29T00:19:03.987Z,59.42
2023-04-29T00:20:07.822Z,59.72
2023-04-29T00:21:10.100Z,59.73
2023-04-29T00:22:12.420Z,59.83
2023-04-29T00:23:14.690Z,60.01
2023-04-29T00:24:16.940Z,60.12
2023-04-29T00:25:19.247Z,60.13
2023-04-29T00:26:21.604Z,59.94
2023-04-29T00:27:24.561Z,59.93
2023-04-29T00:28:28.196Z,60.30
2023-04-29T00:29:30.541Z,60.40
2023-04-29T00:30:34.715Z,60.39
2023-04-29T00:31:37.766Z,60.34
2023-04-29T00:32:40.377Z,60.45
2023-04-29T00:33:42.847Z,60.51
2023-04-29T00:34:45.365Z,60.54
2023-04-29T00:35:47.729Z,60.59
2023-04-29T00:36:50.803Z,60.47
2023-04-29T00:37:54.232Z,60.69
2023-04-29T00:38:56.759Z,60.58
2023-04-29T00:39:59.292Z,60.80
2023-04-29T00:41:01.693Z,60.78
2023-04-29T00:42:04.308Z,60.77
2023-04-29T00:43:06.604Z,60.80
2023-04-29T00:44:10.074Z,60.95
2023-04-29T00:45:12.890Z,60.95
2023-04-29T00:46:15.245Z,60.99
2023-04-29T00:47:17.633Z,60.81
2023-04-29T00:48:20.093Z,60.78
2023-04-29T00:49:22.375Z,60.83
2023-04-29T00:50:25.053Z,60.82
2023-04-29T00:51:27.459Z,60.98
2023-04-29T00:52:31.792Z,61.16
2023-04-29T00:53:34.566Z,61.11
2023-04-29T00:54:38.127Z,61.02
2023-04-29T00:55:42.401Z,61.24
2023-04-29T00:56:47.316Z,61.30
2023-04-29T00:57:52.650Z,61.13
2023-04-29T00:58:55.211Z,61.17
2023-04-29T00:59:58.636Z,61.23
2023-04-29T01:01:04.277Z,61.38
2023-04-29T01:02:06.834Z,61.26
2023-04-29T01:03:09.695Z,61.34
2023-04-29T01:04:13.028Z,61.32
2023-04-29T01:05:15.620Z,61.31
2023-04-29T01:06:24.439Z,61.43
2023-04-29T01:07:26.729Z,61.45
2023-04-29T01:08:52.664Z,61.46
2023-04-29T01:10:10.950Z,61.31
2023-04-29T01:11:15.163Z,61.40
2023-04-29T01:12:32.362Z,61.33
2023-04-29T01:13:42.950Z,61.48
2023-04-29T01:14:54.240Z,61.54
2023-04-29T01:16:04.198Z,61.55
2023-04-29T01:17:11.388Z,61.40
2023-04-29T01:18:30.472Z,61.28
2023-04-29T01:19:40.502Z,61.47
2023-04-29T01:20:45.007Z,61.49
2023-04-29T01:21:51.911Z,61.64
2023-04-29T01:22:55.675Z,61.58
2023-04-29T01:23:58.451Z,61.78
2023-04-29T01:25:04.929Z,61.68
2023-04-29T01:26:10.276Z,61.70
2023-04-29T01:27:41.302Z,61.82
2023-04-29T01:29:13.287Z,61.98
2023-04-29T01:30:57.292Z,61.75
2023-04-29T01:32:09.233Z,61.90
2023-04-29T01:33:29.788Z,62.04
2023-04-29T01:34:55.459Z,62.18
2023-04-29T01:36:13.774Z,62.48
2023-04-29T01:38:07.371Z,62.18
2023-04-29T01:39:16.958Z,62.37
2023-04-29T01:40:33.543Z,62.52
2023-04-29T01:41:59.250Z,62.83
2023-04-29T01:43:08.384Z,62.57
2023-04-29T01:44:17.178Z,62.95
2023-04-29T01:45:21.862Z,62.88
2023-04-29T01:46:24.509Z,63.27
2023-04-29T01:47:31.292Z,63.19
2023-04-29T01:48:33.614Z,63.18
2023-04-29T01:49:37.158Z,63.22
2023-04-29T01:50:39.670Z,63.37
2023-04-29T01:51:49.424Z,63.35
2023-04-29T01:52:51.804Z,63.36
2023-04-29T01:53:54.375Z,63.31
2023-04-29T01:54:57.636Z,63.54
2023-04-29T01:56:02.905Z,63.77
2023-04-29T01:57:17.908Z,63.74
2023-04-29T01:58:34.746Z,63.83
2023-04-29T02:00:07.303Z,63.59
2023-04-29T02:01:15.580Z,63.49
2023-04-29T02:02:21.557Z,63.52
2023-04-29T02:03:32.394Z,63.91
2023-04-29T02:04:37.583Z,63.85
2023-04-29T02:05:40.372Z,64.04
2023-04-29T02:06:43.107Z,64.15
2023-04-29T02:07:45.977Z,63.93
2023-04-29T02:08:49.246Z,64.21
2023-04-29T02:09:52.752Z,64.23
2023-04-29T02:10:56.686Z,64.20
2023-04-29T02:12:11.165Z,64.44
2023-04-29T02:13:13.823Z,64.36
2023-04-29T02:14:17.061Z,64.57
2023-04-29T02:15:19.904Z,64.69
2023-04-29T02:16:22.270Z,64.79
2023-04-29T02:17:42.483Z,64.78
2023-04-29T02:18:45.851Z,64.92
2023-04-29T02:19:48.165Z,64.87
2023-04-29T02:20:51.938Z,65.09
2023-04-29T02:21:54.165Z,65.22
2023-04-29T02:22:56.444Z,65.20
2023-04-29T02:23:58.696Z,65.16
2023-04-29T02:25:01.203Z,65.39
2023-04-29T02:26:07.317Z,65.42
2023-04-29T02:27:10.465Z,65.29
2023-04-29T02:28:12.824Z,65.41
2023-04-29T02:29:16.410Z,65.42
2023-04-29T02:30:19.902Z,65.61
2023-04-29T02:31:22.261Z,65.81
2023-04-29T02:32:24.656Z,65.86
2023-04-29T02:33:26.975Z,66.04
2023-04-29T02:34:29.442Z,66.05
2023-04-29T02:35:32.027Z,65.80
2023-04-29T02:36:34.334Z,65.92
2023-04-29T02:37:36.774Z,65.68
2023-04-29T02:38:39.023Z,65.86
2023-04-29T02:39:42.709Z,65.81
2023-04-29T02:40:46.162Z,65.82
2023-04-29T02:41:49.205Z,65.84
2023-04-29T02:42:51.551Z,65.76
2023-04-29T02:43:53.817Z,66.22
2023-04-29T02:44:56.347Z,66.09
2023-04-29T02:46:01.098Z,66.36
2023-04-29T02:47:04.056Z,66.19
2023-04-29T02:48:07.034Z,66.28
2023-04-29T02:49:10.088Z,66.17
2023-04-29T02:50:12.568Z,66.41
2023-04-29T02:51:14.887Z,66.31
2023-04-29T02:52:20.042Z,66.33
2023-04-29T02:53:23.563Z,66.35
2023-04-29T02:54:26.004Z,66.18
2023-04-29T02:55:28.304Z,65.91
2023-04-29T02:56:34.455Z,65.99
2023-04-29T02:57:36.737Z,66.25
2023-04-29T02:58:39.704Z,66.19
2023-04-29T02:59:42.297Z,66.12
2023-04-29T03:00:44.598Z,66.28
2023-04-29T03:01:48.026Z,66.35
2023-04-29T03:02:50.709Z,66.18
2023-04-29T03:03:54.261Z,66.26
2023-04-29T03:04:56.706Z,66.28
2023-04-29T03:05:58.972Z,66.54
2023-04-29T03:07:01.474Z,66.44
2023-04-29T03:08:04.956Z,66.40
2023-04-29T03:09:08.061Z,66.50
2023-04-29T03:10:10.462Z,66.64
2023-04-29T03:11:13.503Z,66.59
2023-04-29T03:12:16.978Z,66.86
2023-04-29T03:13:21.396Z,67.02
2023-04-29T03:14:23.792Z,66.85
2023-04-29T03:15:26.435Z,66.88
2023-04-29T03:16:29.433Z,66.89
2023-04-29T03:17:32.137Z,66.77
2023-04-29T03:18:34.457Z,66.88
2023-04-29T03:19:36.726Z,66.92
2023-04-29T03:20:38.970Z,66.86
2023-04-29T03:21:41.214Z,66.99
2023-04-29T03:22:43.518Z,66.85
2023-04-29T03:23:46.121Z,66.89
2023-04-29T03:24:55.774Z,67.15
2023-04-29T03:25:58.130Z,67.08
2023-04-29T03:27:01.448Z,67.17
2023-04-29T03:28:04.453Z,66.95
2023-04-29T03:29:07.553Z,67.14
2023-04-29T03:30:10.344Z,66.89
2023-04-29T03:31:21.316Z,66.64
2023-04-29T03:32:24.332Z,66.75
2023-04-29T03:33:26.854Z,66.60
2023-04-29T03:34:29.783Z,66.80
2023-04-29T03:35:46.069Z,66.66
2023-04-29T03:37:01.490Z,66.47
2023-04-29T03:38:04.192Z,66.38
2023-04-29T03:39:08.768Z,66.44
2023-04-29T03:40:12.544Z,66.50
2023-04-29T03:41:16.004Z,66.60
2023-04-29T03:42:18.283Z,66.56
2023-04-29T03:43:20.934Z,66.35
2023-04-29T03:44:23.466Z,66.12
2023-04-29T03:45:25.787Z,66.17
2023-04-29T03:46:28.138Z,66.16
2023-04-29T03:47:30.416Z,66.10
2023-04-29T03:48:33.143Z,66.09
2023-04-29T03:49:36.034Z,65.97
2023-04-29T03:50:38.363Z,66.21
2023-04-29T03:51:40.688Z,66.13
2023-04-29T03:52:50.707Z,66.02
2023-04-29T03:53:57.054Z,66.08
2023-04-29T03:55:00.329Z,66.17
2023-04-29T03:56:03.488Z,66.14
2023-04-29T03:57:06.159Z,66.36
2023-04-29T03:58:09.198Z,66.25
2023-04-29T03:59:11.515Z,66.12
2023-04-29T04:00:14.772Z,66.09
2023-04-29T04:01:21.111Z,66.16
2023-04-29T04:02:23.773Z,66.07
2023-04-29T04:03:27.991Z,66.19
2023-04-29T04:04:32.501Z,66.37
2023-04-29T04:05:34.992Z,66.36
2023-04-29T04:06:44.341Z,66.19
2023-04-29T04:07:48.256Z,66.28
2023-04-29T04:09:21.240Z,66.42
2023-04-29T04:10:23.621Z,66.46
2023-04-29T04:11:25.981Z,66.28
2023-04-29T04:12:33.626Z,66.19
2023-04-29T04:13:37.079Z,66.11
2023-04-29T04:14:40.113Z,66.09
2023-04-29T04:15:42.722Z,66.36
2023-04-29T04:16:45.176Z,66.17
2023-04-29T04:17:47.531Z,66.30
2023-04-29T04:18:50.040Z,66.09
2023-04-29T04:19:52.676Z,66.18
2023-04-29T04:20:55.270Z,66.13
2023-04-29T04:21:59.851Z,66.32
2023-04-29T04:23:02.426Z,65.97
2023-04-29T04:24:06.104Z,66.04
2023-04-29T04:25:08.952Z,66.23
2023-04-29T04:26:13.755Z,66.14
2023-04-29T04:27:28.054Z,66.28
2023-04-29T04:28:33.232Z,66.21
2023-04-29T04:29:41.150Z,66.20
2023-04-29T04:30:49.872Z,66.53
2023-04-29T04:31:52.273Z,66.57
2023-04-29T04:32:55.690Z,66.47
2023-04-29T04:33:59.939Z,66.46
2023-04-29T04:35:03.415Z,66.68
2023-04-29T04:36:06.140Z,66.66
2023-04-29T04:37:08.455Z,66.48
2023-04-29T04:38:11.685Z,66.50
2023-04-29T04:39:14.237Z,66.74
2023-04-29T04:40:17.224Z,66.62
2023-04-29T04:41:39.776Z,66.55
2023-04-29T04:42:42.241Z,66.71
2023-04-29T04:43:48.935Z,66.49
2023-04-29T04:44:58.549Z,66.48
2023-04-29T04:46:15.205Z,66.51
2023-04-29T04:47:27.696Z,66.55
2023-04-29T04:48:37.668Z,66.49
2023-04-29T04:49:40.256Z,66.48
2023-04-29T04:50:43.524Z,66.78
2023-04-29T04:51:45.983Z,66.81
2023-04-29T04:52:48.734Z,66.86
2023-04-29T04:54:04.425Z,66.65
2023-04-29T04:55:09.347Z,66.71
2023-04-29T04:56:12.443Z,66.74
2023-04-29T04:57:14.955Z,66.95
2023-04-29T04:58:17.566Z,66.92
2023-04-29T04:59:19.908Z,66.88
2023-04-29T05:00:22.272Z,67.19
2023-04-29T05:01:24.830Z,67.13
2023-04-29T05:02:27.380Z,67.11
2023-04-29T05:03:30.134Z,66.93
2023-04-29T05:04:32.685Z,67.15
2023-04-29T05:05:35.035Z,67.60
2023-04-29T05:06:37.912Z,67.53
2023-04-29T05:07:40.406Z,67.58
2023-04-29T05:08:43.959Z,67.46
2023-04-29T05:09:46.294Z,67.66
2023-04-29T05:10:48.662Z,67.51
2023-04-29T05:11:51.372Z,67.56
2023-04-29T05:12:54.277Z,67.52
2023-04-29T05:13:56.597Z,67.38
2023-04-29T05:14:58.937Z,67.36
2023-04-29T05:16:06.233Z,67.48
2023-04-29T05:17:10.307Z,67.35
2023-04-29T05:18:13.104Z,67.61
2023-04-29T05:19:19.630Z,67.43
2023-04-29T05:20:21.998Z,67.46
2023-04-29T05:21:24.305Z,67.33
2023-04-29T05:22:26.717Z,67.39
2023-04-29T05:23:29.301Z,67.53
2023-04-29T05:24:33.087Z,67.23
2023-04-29T05:25:35.527Z,67.49
2023-04-29T05:26:38.546Z,67.51
2023-04-29T05:27:42.133Z,67.39
2023-04-29T05:28:48.377Z,67.47
2023-04-29T05:29:51.203Z,67.56
2023-04-29T05:30:54.253Z,67.88
2023-04-29T05:31:56.603Z,67.80
2023-04-29T05:33:00.880Z,67.89
2023-04-29T05:34:03.534Z,68.04
2023-04-29T05:35:07.554Z,68.15
2023-04-29T05:36:10.947Z,67.96
2023-04-29T05:37:13.714Z,68.35
2023-04-29T05:38:33.024Z,68.10
2023-04-29T05:39:40.058Z,68.16
2023-04-29T05:40:50.289Z,68.11
2023-04-29T05:42:15.976Z,67.87
2023-04-29T05:43:22.522Z,67.93
2023-04-29T05:44:24.822Z,68.15
2023-04-29T05:45:27.084Z,68.01
2023-04-29T05:46:29.397Z,68.16
2023-04-29T05:47:31.863Z,68.15
2023-04-29T05:48:34.146Z,68.06
2023-04-29T05:49:36.418Z,68.24
2023-04-29T05:50:38.702Z,67.94
2023-04-29T05:51:41.048Z,68.08
2023-04-29T05:52:43.430Z,67.99
2023-04-29T05:53:45.826Z,67.94
2023-04-29T05:54:48.340Z,67.85
2023-04-29T05:55:51.577Z,68.21
2023-04-29T05:56:56.310Z,68.05
2023-04-29T05:58:00.225Z,68.12
2023-04-29T05:59:02.501Z,68.06
2023-04-29T06:00:07.110Z,67.95
2023-04-29T06:01:17.579Z,68.03
2023-04-29T06:02:21.480Z,67.87
2023-04-29T06:03:24.344Z,67.53
2023-04-29T06:04:44.390Z,67.16
2023-04-29T06:06:02.387Z,67.23
2023-04-29T06:07:15.012Z,67.25
2023-04-29T06:08:25.845Z,67.05
2023-04-29T06:09:38.616Z,67.00
2023-04-29T06:10:41.426Z,67.17
2023-04-29T06:11:45.384Z,66.91
2023-04-29T06:12:50.980Z,66.83
2023-04-29T06:13:53.294Z,66.75
2023-04-29T06:14:55.786Z,66.66
2023-04-29T06:15:58.143Z,66.69
2023-04-29T06:17:02.312Z,66.45
2023-04-29T06:18:06.012Z,66.66
2023-04-29T06:19:08.475Z,66.53
2023-04-29T06:20:11.408Z,66.51
2023-04-29T06:21:15.202Z,66.28
2023-04-29T06:22:18.644Z,66.67
2023-04-29T06:23:25.188Z,66.47
2023-04-29T06:24:27.872Z,66.76
2023-04-29T06:25:30.699Z,66.67
2023-04-29T06:26:33.702Z,66.67
2023-04-29T06:27:35.986Z,66.63
2023-04-29T06:28:38.528Z,66.26
2023-04-29T06:29:42.062Z,66.28
2023-04-29T06:30:46.010Z,66.04
2023-04-29T06:31:49.235Z,65.63
2023-04-29T06:32:52.042Z,65.40
2023-04-29T06:33:55.234Z,65.55
2023-04-29T06:34:57.474Z,65.09
2023-04-29T06:36:07.173Z,64.83
2023-04-29T06:37:38.251Z,64.83
2023-04-29T06:39:05.197Z,64.89
2023-04-29T06:40:29.033Z,64.75
2023-04-29T06:41:59.051Z,64.72
2023-04-29T06:43:20.170Z,64.61
2023-04-29T06:44:44.031Z,64.43
2023-04-29T06:46:13.361Z,64.25
2023-04-29T06:47:23.734Z,64.21
2023-04-29T06:48:57.825Z,63.94
2023-04-29T06:50:00.596Z,63.74
2023-04-29T06:51:02.886Z,64.01
2023-04-29T06:52:05.177Z,63.82
2023-04-29T06:53:07.583Z,63.87
2023-04-29T06:54:09.840Z,63.61
2023-04-29T06:55:12.694Z,63.78
2023-04-29T06:56:18.359Z,63.61
2023-04-29T06:57:23.073Z,64.02
2023-04-29T06:58:25.367Z,63.46
2023-04-29T06:59:27.688Z,63.66
2023-04-29T07:00:30.238Z,63.61
2023-04-29T07:01:32.619Z,63.62
2023-04-29T07:02:36.491Z,63.76
2023-04-29T07:03:38.842Z,63.61
2023-04-29T07:04:42.607Z,63.41
2023-04-29T07:05:46.520Z,63.33
2023-04-29T07:06:48.898Z,63.85
2023-04-29T07:07:51.233Z,63.55
2023-04-29T07:08:55.503Z,63.67
2023-04-29T07:09:59.277Z,63.54
2023-04-29T07:11:02.431Z,63.54
2023-04-29T07:12:05.544Z,63.65
2023-04-29T07:13:07.811Z,63.83
2023-04-29T07:14:10.140Z,63.74
2023-04-29T07:15:12.450Z,63.47
2023-04-29T07:16:19.177Z,63.59
2023-04-29T07:17:21.546Z,63.30
2023-04-29T07:18:23.940Z,63.76
2023-04-29T07:19:26.570Z,63.89
2023-04-29T07:20:29.321Z,64.18
2023-04-29T07:21:31.646Z,64.11
2023-04-29T07:22:34.118Z,64.23
2023-04-29T07:23:36.422Z,64.55
2023-04-29T07:24:38.743Z,64.15
2023-04-29T07:25:41.599Z,64.27
2023-04-29T07:26:45.332Z,64.29
2023-04-29T07:27:50.625Z,64.25
2023-04-29T07:28:53.427Z,64.10
2023-04-29T07:29:55.682Z,64.13
2023-04-29T07:30:59.237Z,64.16
2023-04-29T07:32:01.673Z,64.06
2023-04-29T07:33:04.730Z,64.05
2023-04-29T07:34:07.481Z,64.01
2023-04-29T07:35:09.878Z,64.29
2023-04-29T07:36:12.294Z,64.32
2023-04-29T07:37:14.527Z,64.20
2023-04-29T07:38:17.328Z,64.06
2023-04-29T07:39:19.678Z,63.79
2023-04-29T07:40:24.755Z,63.89
2023-04-29T07:41:28.908Z,63.85
2023-04-29T07:42:31.164Z,63.71
2023-04-29T07:43:34.733Z,63.72
2023-04-29T07:44:37.195Z,63.72
2023-04-29T07:45:40.132Z,63.20
2023-04-29T07:46:42.476Z,63.21
2023-04-29T07:47:45.770Z,62.98
2023-04-29T07:48:48.165Z,62.86
2023-04-29T07:49:50.499Z,62.93
2023-04-29T07:50:52.852Z,63.04
2023-04-29T07:51:55.512Z,62.59
2023-04-29T07:53:00.380Z,62.73
2023-04-29T07:54:02.962Z,62.72
2023-04-29T07:55:05.867Z,62.46
2023-04-29T07:56:08.828Z,62.30
2023-04-29T07:57:12.237Z,62.34
2023-04-29T07:58:14.693Z,62.36
2023-04-29T07:59:17.137Z,62.44
2023-04-29T08:00:19.714Z,62.34
2023-04-29T08:01:23.185Z,62.18
2023-04-29T08:02:25.672Z,62.76
2023-04-29T08:03:28.250Z,62.83
2023-04-29T08:04:31.083Z,62.98
2023-04-29T08:05:41.442Z,63.44
2023-04-29T08:06:43.824Z,63.10
2023-04-29T08:07:51.083Z,63.47
2023-04-29T08:08:53.741Z,63.51
2023-04-29T08:09:56.079Z,63.64
2023-04-29T08:10:58.531Z,63.41
2023-04-29T08:12:02.290Z,63.14
2023-04-29T08:13:04.634Z,62.96
2023-04-29T08:14:07.390Z,62.92
2023-04-29T08:15:12.353Z,62.90
2023-04-29T08:16:14.622Z,62.65
2023-04-29T08:17:16.985Z,62.77
2023-04-29T08:18:19.357Z,62.45
2023-04-29T08:19:22.176Z,62.49
2023-04-29T08:20:25.071Z,62.33
2023-04-29T08:21:27.971Z,61.92
2023-04-29T08:22:30.872Z,61.52
2023-04-29T08:23:35.936Z,61.45
2023-04-29T08:24:38.261Z,61.50
2023-04-29T08:25:44.307Z,61.35
2023-04-29T08:26:47.574Z,61.22
2023-04-29T08:27:49.857Z,61.08
2023-04-29T08:28:52.130Z,60.53
2023-04-29T08:29:54.473Z,60.36
2023-04-29T08:30:56.894Z,60.32
2023-04-29T08:31:59.331Z,60.25
2023-04-29T08:33:01.699Z,60.02
2023-04-29T08:34:04.102Z,60.35
2023-04-29T08:35:06.989Z,60.02
2023-04-29T08:36:09.311Z,59.67
2023-04-29T08:37:12.086Z,59.48
2023-04-29T08:38:14.505Z,59.52
2023-04-29T08:39:16.764Z,59.26
2023-04-29T08:40:19.114Z,59.03
2023-04-29T08:41:21.569Z,59.06
2023-04-29T08:42:34.215Z,59.22
2023-04-29T08:43:40.974Z,58.90
2023-04-29T08:44:44.576Z,58.87
2023-04-29T08:45:50.164Z,58.81
2023-04-29T08:46:53.085Z,58.71
2023-04-29T08:47:57.575Z,58.86
2023-04-29T08:49:04.483Z,58.83
2023-04-29T08:50:07.721Z,58.70
2023-04-29T08:51:13.707Z,59.12
2023-04-29T08:52:16.007Z,59.05
2023-04-29T08:53:20.106Z,59.01
2023-04-29T08:54:22.440Z,59.02
2023-04-29T08:55:28.386Z,59.16
2023-04-29T08:56:31.614Z,59.44
2023-04-29T08:57:40.180Z,59.36
2023-04-29T08:58:44.818Z,59.45
2023-04-29T08:59:47.217Z,59.68
2023-04-29T09:00:50.014Z,59.41
2023-04-29T09:01:56.742Z,59.68
2023-04-29T09:03:00.901Z,59.30
2023-04-29T09:04:37.187Z,59.49
2023-04-29T09:05:42.159Z,59.26
2023-04-29T09:06:44.614Z,59.03
2023-04-29T09:07:47.707Z,58.96
2023-04-29T09:08:50.037Z,59.23
2023-04-29T09:09:53.717Z,58.91
2023-04-29T09:10:56.779Z,59.04
2023-04-29T09:11:59.275Z,59.16
2023-04-29T09:13:01.651Z,59.20
2023-04-29T09:14:08.358Z,59.01
2023-04-29T09:15:11.027Z,58.97
2023-04-29T09:16:13.694Z,59.19
2023-04-29T09:17:16.792Z,59.23
2023-04-29T09:18:47.117Z,59.27
2023-04-29T09:19:49.696Z,59.24
2023-04-29T09:20:52.067Z,59.51
2023-04-29T09:21:58.845Z,59.74
2023-04-29T09:23:04.275Z,59.60
2023-04-29T09:24:06.631Z,59.63
2023-04-29T09:25:15.638Z,59.83
2023-04-29T09:26:17.961Z,59.80
2023-04-29T09:27:29.409Z,60.01
2023-04-29T09:28:32.036Z,60.11
2023-04-29T09:29:36.732Z,60.03
2023-04-29T09:30:46.339Z,60.15
2023-04-29T09:31:51.013Z,60.04
2023-04-29T09:33:09.963Z,60.11
2023-04-29T09:34:13.272Z,59.76
2023-04-29T09:35:21.813Z,59.79
2023-04-29T09:36:59.946Z,59.67
2023-04-29T09:38:16.307Z,60.08
2023-04-29T09:39:21.009Z,59.94
2023-04-29T09:40:40.415Z,60.03
2023-04-29T09:41:55.365Z,59.96
2023-04-29T09:42:58.774Z,60.00
2023-04-29T09:44:08.436Z,60.09
2023-04-29T09:45:12.269Z,59.96
2023-04-29T09:46:16.441Z,60.23
2023-04-29T09:47:30.198Z,60.55
2023-04-29T09:48:34.427Z,60.41
2023-04-29T09:49:40.016Z,60.53
2023-04-29T09:50:44.410Z,60.57
2023-04-29T09:51:55.448Z,60.73
2023-04-29T09:52:59.449Z,60.83
2023-04-29T09:54:20.951Z,60.58
2023-04-29T09:55:23.249Z,60.68
2023-04-29T09:56:29.481Z,60.67
2023-04-29T09:57:43.483Z,60.45
2023-04-29T09:58:47.450Z,60.76
2023-04-29T09:59:49.780Z,60.71
2023-04-29T10:00:53.874Z,60.76
2023-04-29T10:01:58.151Z,60.86
2023-04-29T10:03:02.145Z,60.94
2023-04-29T10:04:05.572Z,60.79
2023-04-29T10:05:10.326Z,60.63
2023-04-29T10:06:13.589Z,59.51
2023-04-29T10:07:17.898Z,59.26
2023-04-29T10:08:20.554Z,59.24
2023-04-29T10:09:23.910Z,58.95
2023-04-29T10:10:30.224Z,58.91
2023-04-29T10:11:34.506Z,58.63
2023-04-29T10:12:38.851Z,58.54
2023-04-29T10:13:44.210Z,58.50
2023-04-29T10:15:27.893Z,58.61
2023-04-29T10:16:34.028Z,58.39
2023-04-29T10:17:49.892Z,58.07
2023-04-29T10:18:56.851Z,57.65
2023-04-29T10:20:06.654Z,57.68
2023-04-29T10:21:12.235Z,57.41
2023-04-29T10:22:27.141Z,57.52
2023-04-29T10:23:31.258Z,57.44
2023-04-29T10:24:38.129Z,57.22
2023-04-29T10:25:43.234Z,57.28
2023-04-29T10:26:47.527Z,57.59
2023-04-29T10:27:53.721Z,57.36
2023-04-29T10:28:56.992Z,57.54
2023-04-29T10:30:02.509Z,57.41
2023-04-29T10:31:06.035Z,57.50
2023-04-29T10:32:12.833Z,57.67
2023-04-29T10:33:16.766Z,57.22
2023-04-29T10:34:19.776Z,56.84
2023-04-29T10:35:26.061Z,57.02
2023-04-29T10:36:31.762Z,57.02
2023-04-29T10:37:34.204Z,57.21
2023-04-29T10:38:43.263Z,56.93
2023-04-29T10:39:58.056Z,56.54
2023-04-29T10:41:05.397Z,56.02
2023-04-29T10:42:21.335Z,55.63
2023-04-29T10:43:28.045Z,55.64
2023-04-29T10:44:30.304Z,55.53
2023-04-29T10:45:36.472Z,55.47
2023-04-29T10:46:39.359Z,55.34
2023-04-29T10:47:41.721Z,55.25
2023-04-29T10:48:47.780Z,55.24
2023-04-29T10:50:04.707Z,55.67
2023-04-29T10:51:06.984Z,55.50
2023-04-29T10:52:09.404Z,55.32
2023-04-29T10:53:11.668Z,55.56
2023-04-29T10:54:17.782Z,55.26
2023-04-29T10:55:20.138Z,55.55
2023-04-29T10:56:22.430Z,55.34
2023-04-29T10:57:25.473Z,55.52
2023-04-29T10:58:37.009Z,55.36
2023-04-29T10:59:39.234Z,55.33
2023-04-29T11:00:41.562Z,55.20
2023-04-29T11:01:49.501Z,55.00
2023-04-29T11:02:51.835Z,54.90
2023-04-29T11:03:58.961Z,54.61
2023-04-29T11:05:10.428Z,54.95
2023-04-29T11:06:12.958Z,54.65
2023-04-29T11:07:30.249Z,54.77
2023-04-29T11:08:40.129Z,54.62
2023-04-29T11:09:42.529Z,54.62
2023-04-29T11:10:45.915Z,54.58
2023-04-29T11:12:06.178Z,54.56
2023-04-29T11:13:28.877Z,54.39
2023-04-29T11:14:50.572Z,54.09
2023-04-29T11:15:54.258Z,53.49
2023-04-29T11:17:02.058Z,53.71
2023-04-29T11:18:04.313Z,53.50
2023-04-29T11:19:08.840Z,53.84
2023-04-29T11:20:14.432Z,53.44
2023-04-29T11:21:16.797Z,53.63
2023-04-29T11:22:19.343Z,53.82
2023-04-29T11:23:26.747Z,53.70
2023-04-29T11:24:30.810Z,53.91
2023-04-29T11:25:34.444Z,53.98
2023-04-29T11:26:37.232Z,53.96
2023-04-29T11:27:42.800Z,54.08
2023-04-29T11:28:45.917Z,54.17
2023-04-29T11:29:48.205Z,54.34
2023-04-29T11:30:51.522Z,54.38
2023-04-29T11:32:00.056Z,54.52
2023-04-29T11:33:02.519Z,54.45
2023-04-29T11:34:05.844Z,54.33
2023-04-29T11:35:13.023Z,54.52
2023-04-29T11:36:15.450Z,54.51
2023-04-29T11:37:25.937Z,54.62
2023-04-29T11:38:29.423Z,54.27
2023-04-29T11:39:36.371Z,54.49
2023-04-29T11:40:51.425Z,54.33
2023-04-29T11:42:07.104Z,54.08
2023-04-29T11:43:09.401Z,54.20
2023-04-29T11:44:12.505Z,54.05
2023-04-29T11:45:15.486Z,54.00
2023-04-29T11:46:17.912Z,54.00
2023-04-29T11:47:22.192Z,54.16
2023-04-29T11:48:26.073Z,53.95
2023-04-29T11:49:35.005Z,53.95
2023-04-29T11:50:37.447Z,53.94
2023-04-29T11:51:39.758Z,53.52
2023-04-29T11:52:42.235Z,53.50
2023-04-29T11:53:45.042Z,53.43
2023-04-29T11:54:47.946Z,53.82
2023-04-29T11:55:50.394Z,53.81
2023-04-29T11:56:57.133Z,53.86
2023-04-29T11:58:00.178Z,53.87
2023-04-29T11:59:11.741Z,53.83
2023-04-29T12:00:14.415Z,53.80
2023-04-29T12:01:16.963Z,54.00
2023-04-29T12:02:23.394Z,53.57
2023-04-29T12:03:25.845Z,53.81
2023-04-29T12:04:29.032Z,53.52
2023-04-29T12:05:31.606Z,53.60
2023-04-29T12:06:34.069Z,53.46
2023-04-29T12:07:37.384Z,53.26
2023-04-29T12:08:41.092Z,53.31
2023-04-29T12:09:44.947Z,53.45
2023-04-29T12:10:48.083Z,53.28
2023-04-29T12:11:51.591Z,53.08
2023-04-29T12:12:54.102Z,53.48
2023-04-29T12:13:57.629Z,53.55
2023-04-29T12:15:00.047Z,53.68
2023-04-29T12:16:02.669Z,53.34
2023-04-29T12:17:06.109Z,53.58
2023-04-29T12:18:09.261Z,53.72
2023-04-29T12:19:12.288Z,53.63
2023-04-29T12:20:15.294Z,53.44
2023-04-29T12:21:17.875Z,53.44
2023-04-29T12:22:20.334Z,53.27
2023-04-29T12:23:24.682Z,53.30
2023-04-29T12:24:27.019Z,53.25
2023-04-29T12:25:29.666Z,53.47
2023-04-29T12:26:32.766Z,53.62
2023-04-29T12:27:36.598Z,54.00
2023-04-29T12:28:41.891Z,54.06
2023-04-29T12:29:44.144Z,54.27
2023-04-29T12:30:51.786Z,54.37
2023-04-29T12:31:54.660Z,54.19
2023-04-29T12:32:57.118Z,54.35
2023-04-29T12:33:59.528Z,54.45
2023-04-29T12:35:01.752Z,54.83
2023-04-29T12:36:04.245Z,54.56
2023-04-29T12:37:06.587Z,54.42
2023-04-29T12:38:09.492Z,54.61
2023-04-29T12:39:14.718Z,54.56
2023-04-29T12:40:17.709Z,54.36
2023-04-29T12:41:21.468Z,54.41
2023-04-29T12:42:23.715Z,54.69
2023-04-29T12:43:30.251Z,54.80
2023-04-29T12:44:38.905Z,54.43
2023-04-29T12:45:41.311Z,54.75
2023-04-29T12:46:44.025Z,54.68
2023-04-29T12:47:46.731Z,54.67
2023-04-29T12:48:49.053Z,54.54
2023-04-29T12:49:51.577Z,54.70
2023-04-29T12:50:53.948Z,54.52
2023-04-29T12:51:56.267Z,54.87
2023-04-29T12:53:00.381Z,54.58
2023-04-29T12:54:04.666Z,54.47
2023-04-29T12:55:07.767Z,54.54
2023-04-29T12:56:12.409Z,54.43
2023-04-29T12:57:14.768Z,54.13
2023-04-29T12:58:17.082Z,53.93
2023-04-29T12:59:19.421Z,53.81
2023-04-29T13:00:21.827Z,53.72
2023-04-29T13:01:24.211Z,53.81
2023-04-29T13:02:26.766Z,54.12
2023-04-29T13:03:29.268Z,54.32
2023-04-29T13:04:31.944Z,54.46
2023-04-29T13:05:35.124Z,54.22
2023-04-29T13:06:41.998Z,54.33
2023-04-29T13:07:44.430Z,54.67
2023-04-29T13:08:46.894Z,54.64
2023-04-29T13:09:49.528Z,54.83
2023-04-29T13:10:51.999Z,54.61
2023-04-29T13:11:54.455Z,54.76
2023-04-29T13:12:57.088Z,54.97
2023-04-29T13:13:59.443Z,55.22
2023-04-29T13:15:01.888Z,55.04
2023-04-29T13:16:05.340Z,55.13
2023-04-29T13:17:07.769Z,55.08
2023-04-29T13:18:10.209Z,55.63
2023-04-29T13:19:30.046Z,55.48
2023-04-29T13:20:40.943Z,55.81
2023-04-29T13:21:44.487Z,55.76
2023-04-29T13:22:46.797Z,55.78
2023-04-29T13:23:49.543Z,56.14
2023-04-29T13:24:52.684Z,56.02
2023-04-29T13:25:55.072Z,56.13
2023-04-29T13:26:58.397Z,56.16
2023-04-29T13:28:00.691Z,56.40
2023-04-29T13:29:03.351Z,56.56
2023-04-29T13:30:06.830Z,56.56
2023-04-29T13:31:09.074Z,56.50
2023-04-29T13:32:11.639Z,56.53
2023-04-29T13:33:14.531Z,56.57
2023-04-29T13:34:17.099Z,56.78
2023-04-29T13:35:19.428Z,56.72
2023-04-29T13:36:21.861Z,56.91
2023-04-29T13:37:24.152Z,57.13
2023-04-29T13:38:26.389Z,57.07
2023-04-29T13:39:29.403Z,57.17
2023-04-29T13:40:31.647Z,57.04
2023-04-29T13:41:35.752Z,57.12
2023-04-29T13:42:45.273Z,57.51
2023-04-29T13:43:51.261Z,57.47
2023-04-29T13:44:57.457Z,57.47
2023-04-29T13:45:59.813Z,57.42
2023-04-29T13:47:02.333Z,57.60
2023-04-29T13:48:12.013Z,57.90
2023-04-29T13:49:56.076Z,57.86
2023-04-29T13:52:16.801Z,57.86
2023-04-29T13:53:41.296Z,58.21
2023-04-29T13:56:35.959Z,58.20
2023-04-29T14:00:45.395Z,58.49
2023-04-29T14:04:01.421Z,58.96
2023-04-29T14:05:04.441Z,58.82
2023-04-29T14:06:07.554Z,58.82
2023-04-29T14:07:09.819Z,58.71
2023-04-29T14:08:12.142Z,58.92
2023-04-29T14:09:14.435Z,58.83
2023-04-29T14:10:16.792Z,58.97
2023-04-29T14:11:19.788Z,58.93
2023-04-29T14:12:22.087Z,59.11